sensor_id;sensor_type;location;lat;lon;timestamp;temperature;humidity
23147;DHT22;11742;53.532;-1.478;2024-01-25T00:02:21;10.60;99.90
23147;DHT22;11742;53.532;-1.478;2024-01-25T00:05:05;10.60;99.90
23147;DHT22;11742;53.532;-1.478;2024-01-25T00:07:50;10.60;99.90
23147;DHT22;11742;53.532;-1.478;2024-01-25T00:10:34;10.50;99.90
23147;DHT22;11742;53.532;-1.478;2024-01-25T00:13:18;10.50;99.90
23147;DHT22;11742;53.532;-1.478;2024-01-25T00:16:03;10.50;99.90
23147;DHT22;11742;53.532;-1.478;2024-01-25T00:18:47;10.50;99.90
23147;DHT22;11742;53.532;-1.478;2024-01-25T00:21:31;10.40;99.90
23147;DHT22;11742;53.532;-1.478;2024-01-25T00:24:16;10.40;99.90
23147;DHT22;11742;53.532;-1.478;2024-01-25T00:27:00;10.40;99.90
23147;DHT22;11742;53.532;-1.478;2024-01-25T00:29:44;10.40;99.90
23147;DHT22;11742;53.532;-1.478;2024-01-25T00:32:29;10.40;99.90
23147;DHT22;11742;53.532;-1.478;2024-01-25T00:35:13;10.40;99.90
23147;DHT22;11742;53.532;-1.478;2024-01-25T00:37:58;10.40;99.90
23147;DHT22;11742;53.532;-1.478;2024-01-25T00:40:44;10.30;99.80
23147;DHT22;11742;53.532;-1.478;2024-01-25T00:43:29;10.30;99.80
23147;DHT22;11742;53.532;-1.478;2024-01-25T00:46:14;10.30;99.90
23147;DHT22;11742;53.532;-1.478;2024-01-25T00:48:59;10.30;99.90
23147;DHT22;11742;53.532;-1.478;2024-01-25T00:51:47;10.30;99.90
23147;DHT22;11742;53.532;-1.478;2024-01-25T00:54:31;10.20;99.90
23147;DHT22;11742;53.532;-1.478;2024-01-25T00:57:16;10.20;99.90
23147;DHT22;11742;53.532;-1.478;2024-01-25T01:00:00;10.20;99.90
23147;DHT22;11742;53.532;-1.478;2024-01-25T01:02:45;10.20;99.90
23147;DHT22;11742;53.532;-1.478;2024-01-25T01:05:29;10.20;99.90
23147;DHT22;11742;53.532;-1.478;2024-01-25T01:08:14;10.20;99.80
23147;DHT22;11742;53.532;-1.478;2024-01-25T01:10:58;10.10;99.80
23147;DHT22;11742;53.532;-1.478;2024-01-25T01:13:43;10.10;99.80
23147;DHT22;11742;53.532;-1.478;2024-01-25T01:16:27;10.10;99.80
23147;DHT22;11742;53.532;-1.478;2024-01-25T01:19:14;10.00;99.80
23147;DHT22;11742;53.532;-1.478;2024-01-25T01:21:58;10.00;99.80
23147;DHT22;11742;53.532;-1.478;2024-01-25T01:24:43;10.00;99.80
23147;DHT22;11742;53.532;-1.478;2024-01-25T01:27:27;10.00;99.80
23147;DHT22;11742;53.532;-1.478;2024-01-25T01:30:11;10.00;99.80
23147;DHT22;11742;53.532;-1.478;2024-01-25T01:32:55;10.00;99.90
23147;DHT22;11742;53.532;-1.478;2024-01-25T01:35:40;9.90;99.80
23147;DHT22;11742;53.532;-1.478;2024-01-25T01:38:24;10.00;99.80
23147;DHT22;11742;53.532;-1.478;2024-01-25T01:41:09;9.90;99.80
23147;DHT22;11742;53.532;-1.478;2024-01-25T01:43:55;9.90;99.90
23147;DHT22;11742;53.532;-1.478;2024-01-25T01:46:39;9.90;99.80
23147;DHT22;11742;53.532;-1.478;2024-01-25T01:49:24;9.90;99.80
23147;DHT22;11742;53.532;-1.478;2024-01-25T01:52:10;9.90;99.90
23147;DHT22;11742;53.532;-1.478;2024-01-25T01:54:55;9.90;99.90
23147;DHT22;11742;53.532;-1.478;2024-01-25T01:57:40;9.90;99.90
23147;DHT22;11742;53.532;-1.478;2024-01-25T02:00:26;9.80;99.90
23147;DHT22;11742;53.532;-1.478;2024-01-25T02:03:10;9.80;99.90
23147;DHT22;11742;53.532;-1.478;2024-01-25T02:05:55;9.80;99.90
23147;DHT22;11742;53.532;-1.478;2024-01-25T02:08:39;9.80;99.90
23147;DHT22;11742;53.532;-1.478;2024-01-25T02:11:25;9.80;99.90
23147;DHT22;11742;53.532;-1.478;2024-01-25T02:14:10;9.80;99.90
23147;DHT22;11742;53.532;-1.478;2024-01-25T02:16:55;9.80;99.90
23147;DHT22;11742;53.532;-1.478;2024-01-25T02:19:40;9.80;99.90
23147;DHT22;11742;53.532;-1.478;2024-01-25T02:22:24;9.80;99.90
23147;DHT22;11742;53.532;-1.478;2024-01-25T02:25:08;9.70;99.90
23147;DHT22;11742;53.532;-1.478;2024-01-25T02:27:52;9.70;99.90
23147;DHT22;11742;53.532;-1.478;2024-01-25T02:30:37;9.70;99.90
23147;DHT22;11742;53.532;-1.478;2024-01-25T02:33:21;9.70;99.90
23147;DHT22;11742;53.532;-1.478;2024-01-25T02:36:05;9.70;99.90
23147;DHT22;11742;53.532;-1.478;2024-01-25T02:38:49;9.70;99.90
23147;DHT22;11742;53.532;-1.478;2024-01-25T02:41:34;9.70;99.90
23147;DHT22;11742;53.532;-1.478;2024-01-25T02:44:18;9.70;99.90
23147;DHT22;11742;53.532;-1.478;2024-01-25T02:47:03;9.70;99.90
23147;DHT22;11742;53.532;-1.478;2024-01-25T02:49:47;9.70;99.90
23147;DHT22;11742;53.532;-1.478;2024-01-25T02:52:31;9.70;99.90
23147;DHT22;11742;53.532;-1.478;2024-01-25T02:55:18;9.70;99.90
23147;DHT22;11742;53.532;-1.478;2024-01-25T02:58:03;9.60;99.90
23147;DHT22;11742;53.532;-1.478;2024-01-25T03:00:48;9.60;99.90
23147;DHT22;11742;53.532;-1.478;2024-01-25T03:03:32;9.60;99.90
23147;DHT22;11742;53.532;-1.478;2024-01-25T03:06:16;9.60;99.90
23147;DHT22;11742;53.532;-1.478;2024-01-25T03:09:00;9.60;99.90
23147;DHT22;11742;53.532;-1.478;2024-01-25T03:11:44;9.60;99.90
23147;DHT22;11742;53.532;-1.478;2024-01-25T03:14:28;9.60;99.90
23147;DHT22;11742;53.532;-1.478;2024-01-25T03:17:12;9.60;99.90
23147;DHT22;11742;53.532;-1.478;2024-01-25T03:19:57;9.60;99.90
23147;DHT22;11742;53.532;-1.478;2024-01-25T03:22:41;9.60;99.90
23147;DHT22;11742;53.532;-1.478;2024-01-25T03:25:25;9.50;99.90
23147;DHT22;11742;53.532;-1.478;2024-01-25T03:28:10;9.50;99.90
23147;DHT22;11742;53.532;-1.478;2024-01-25T03:30:57;9.50;99.90
23147;DHT22;11742;53.532;-1.478;2024-01-25T03:33:41;9.50;99.90
23147;DHT22;11742;53.532;-1.478;2024-01-25T03:36:26;9.50;99.90
23147;DHT22;11742;53.532;-1.478;2024-01-25T03:39:10;9.50;99.90
23147;DHT22;11742;53.532;-1.478;2024-01-25T03:41:55;9.50;99.90
23147;DHT22;11742;53.532;-1.478;2024-01-25T03:44:39;9.50;99.90
23147;DHT22;11742;53.532;-1.478;2024-01-25T03:47:26;9.50;99.90
23147;DHT22;11742;53.532;-1.478;2024-01-25T03:50:10;9.50;99.90
23147;DHT22;11742;53.532;-1.478;2024-01-25T03:52:54;9.50;99.90
23147;DHT22;11742;53.532;-1.478;2024-01-25T03:55:39;9.50;99.90
23147;DHT22;11742;53.532;-1.478;2024-01-25T03:58:23;9.40;99.90
23147;DHT22;11742;53.532;-1.478;2024-01-25T04:01:07;9.40;99.90
23147;DHT22;11742;53.532;-1.478;2024-01-25T04:03:52;9.40;99.90
23147;DHT22;11742;53.532;-1.478;2024-01-25T04:06:37;9.40;99.90
23147;DHT22;11742;53.532;-1.478;2024-01-25T04:09:22;9.40;99.90
23147;DHT22;11742;53.532;-1.478;2024-01-25T04:12:06;9.40;99.90
23147;DHT22;11742;53.532;-1.478;2024-01-25T04:14:51;9.40;99.90
23147;DHT22;11742;53.532;-1.478;2024-01-25T04:17:35;9.40;99.90
23147;DHT22;11742;53.532;-1.478;2024-01-25T04:20:19;9.40;99.90
23147;DHT22;11742;53.532;-1.478;2024-01-25T04:23:03;9.40;99.90
23147;DHT22;11742;53.532;-1.478;2024-01-25T04:25:48;9.40;99.90
23147;DHT22;11742;53.532;-1.478;2024-01-25T04:28:33;9.30;99.90
23147;DHT22;11742;53.532;-1.478;2024-01-25T04:31:17;9.30;99.90
23147;DHT22;11742;53.532;-1.478;2024-01-25T04:34:02;9.30;99.90
23147;DHT22;11742;53.532;-1.478;2024-01-25T04:36:46;9.30;99.90
23147;DHT22;11742;53.532;-1.478;2024-01-25T04:39:30;9.30;99.90
23147;DHT22;11742;53.532;-1.478;2024-01-25T04:42:14;9.30;99.90
23147;DHT22;11742;53.532;-1.478;2024-01-25T04:44:59;9.30;99.90
23147;DHT22;11742;53.532;-1.478;2024-01-25T04:47:43;9.30;99.90
23147;DHT22;11742;53.532;-1.478;2024-01-25T04:50:27;9.30;99.90
23147;DHT22;11742;53.532;-1.478;2024-01-25T04:53:11;9.30;99.90
23147;DHT22;11742;53.532;-1.478;2024-01-25T04:55:55;9.30;99.90
23147;DHT22;11742;53.532;-1.478;2024-01-25T04:58:40;9.30;99.90
23147;DHT22;11742;53.532;-1.478;2024-01-25T05:01:24;9.30;99.90
23147;DHT22;11742;53.532;-1.478;2024-01-25T05:04:08;9.30;99.90
23147;DHT22;11742;53.532;-1.478;2024-01-25T05:06:53;9.30;99.90
23147;DHT22;11742;53.532;-1.478;2024-01-25T05:09:37;9.30;99.90
23147;DHT22;11742;53.532;-1.478;2024-01-25T05:12:21;9.20;99.90
23147;DHT22;11742;53.532;-1.478;2024-01-25T05:15:05;9.30;99.90
23147;DHT22;11742;53.532;-1.478;2024-01-25T05:17:50;9.20;99.90
23147;DHT22;11742;53.532;-1.478;2024-01-25T05:20:34;9.20;99.90
23147;DHT22;11742;53.532;-1.478;2024-01-25T05:23:20;9.30;99.90
23147;DHT22;11742;53.532;-1.478;2024-01-25T05:26:06;9.20;99.90
23147;DHT22;11742;53.532;-1.478;2024-01-25T05:28:50;9.30;99.90
23147;DHT22;11742;53.532;-1.478;2024-01-25T05:31:35;9.20;99.90
23147;DHT22;11742;53.532;-1.478;2024-01-25T05:34:19;9.20;99.90
23147;DHT22;11742;53.532;-1.478;2024-01-25T05:37:03;9.20;99.90
23147;DHT22;11742;53.532;-1.478;2024-01-25T05:39:47;9.20;99.90
23147;DHT22;11742;53.532;-1.478;2024-01-25T05:42:32;9.20;99.90
23147;DHT22;11742;53.532;-1.478;2024-01-25T05:45:16;9.20;99.90
23147;DHT22;11742;53.532;-1.478;2024-01-25T05:48:04;9.20;99.90
23147;DHT22;11742;53.532;-1.478;2024-01-25T05:50:48;9.20;99.90
23147;DHT22;11742;53.532;-1.478;2024-01-25T05:53:33;9.20;99.90
23147;DHT22;11742;53.532;-1.478;2024-01-25T05:56:17;9.20;99.90
23147;DHT22;11742;53.532;-1.478;2024-01-25T05:59:01;9.20;99.90
23147;DHT22;11742;53.532;-1.478;2024-01-25T06:01:46;9.20;99.90
23147;DHT22;11742;53.532;-1.478;2024-01-25T06:04:30;9.20;99.90
23147;DHT22;11742;53.532;-1.478;2024-01-25T06:07:14;9.20;99.90
23147;DHT22;11742;53.532;-1.478;2024-01-25T06:09:58;9.20;99.90
23147;DHT22;11742;53.532;-1.478;2024-01-25T06:12:42;9.20;99.90
23147;DHT22;11742;53.532;-1.478;2024-01-25T06:15:27;9.20;99.90
23147;DHT22;11742;53.532;-1.478;2024-01-25T06:18:11;9.20;99.90
23147;DHT22;11742;53.532;-1.478;2024-01-25T06:20:55;9.20;99.90
23147;DHT22;11742;53.532;-1.478;2024-01-25T06:23:40;9.20;99.90
23147;DHT22;11742;53.532;-1.478;2024-01-25T06:26:24;9.20;99.90
23147;DHT22;11742;53.532;-1.478;2024-01-25T06:29:09;9.20;99.90
23147;DHT22;11742;53.532;-1.478;2024-01-25T06:31:53;9.20;99.90
23147;DHT22;11742;53.532;-1.478;2024-01-25T06:34:37;9.20;99.90
23147;DHT22;11742;53.532;-1.478;2024-01-25T06:37:21;9.20;99.90
23147;DHT22;11742;53.532;-1.478;2024-01-25T06:40:06;9.20;99.90
23147;DHT22;11742;53.532;-1.478;2024-01-25T06:42:50;9.20;99.90
23147;DHT22;11742;53.532;-1.478;2024-01-25T06:45:35;9.20;99.90
23147;DHT22;11742;53.532;-1.478;2024-01-25T06:48:19;9.20;99.90
23147;DHT22;11742;53.532;-1.478;2024-01-25T06:51:03;9.20;99.90
23147;DHT22;11742;53.532;-1.478;2024-01-25T06:53:48;9.20;99.90
23147;DHT22;11742;53.532;-1.478;2024-01-25T06:56:34;9.20;99.90
23147;DHT22;11742;53.532;-1.478;2024-01-25T06:59:19;9.20;99.90
23147;DHT22;11742;53.532;-1.478;2024-01-25T07:02:03;9.20;99.90
23147;DHT22;11742;53.532;-1.478;2024-01-25T07:04:47;9.20;99.90
23147;DHT22;11742;53.532;-1.478;2024-01-25T07:07:32;9.20;99.90
23147;DHT22;11742;53.532;-1.478;2024-01-25T07:10:17;9.20;99.90
23147;DHT22;11742;53.532;-1.478;2024-01-25T07:13:02;9.20;99.90
23147;DHT22;11742;53.532;-1.478;2024-01-25T07:15:46;9.20;99.90
23147;DHT22;11742;53.532;-1.478;2024-01-25T07:18:30;9.20;99.90
23147;DHT22;11742;53.532;-1.478;2024-01-25T07:21:14;9.20;99.90
23147;DHT22;11742;53.532;-1.478;2024-01-25T07:24:01;9.20;99.90
23147;DHT22;11742;53.532;-1.478;2024-01-25T07:26:46;9.20;99.90
23147;DHT22;11742;53.532;-1.478;2024-01-25T07:29:30;9.20;99.90
23147;DHT22;11742;53.532;-1.478;2024-01-25T07:32:15;9.30;99.90
23147;DHT22;11742;53.532;-1.478;2024-01-25T07:35:01;9.20;99.90
23147;DHT22;11742;53.532;-1.478;2024-01-25T07:37:45;9.20;99.90
23147;DHT22;11742;53.532;-1.478;2024-01-25T07:40:30;9.20;99.90
23147;DHT22;11742;53.532;-1.478;2024-01-25T07:43:14;9.20;99.90
23147;DHT22;11742;53.532;-1.478;2024-01-25T07:45:58;9.20;99.90
23147;DHT22;11742;53.532;-1.478;2024-01-25T07:48:42;9.20;99.90
23147;DHT22;11742;53.532;-1.478;2024-01-25T07:51:26;9.30;99.90
23147;DHT22;11742;53.532;-1.478;2024-01-25T07:54:12;9.30;99.90
23147;DHT22;11742;53.532;-1.478;2024-01-25T07:56:57;9.20;99.90
23147;DHT22;11742;53.532;-1.478;2024-01-25T07:59:41;9.20;99.90
23147;DHT22;11742;53.532;-1.478;2024-01-25T08:02:25;9.20;99.90
23147;DHT22;11742;53.532;-1.478;2024-01-25T08:05:10;9.30;99.90
23147;DHT22;11742;53.532;-1.478;2024-01-25T08:07:55;9.20;99.90
23147;DHT22;11742;53.532;-1.478;2024-01-25T08:10:40;9.30;99.90
23147;DHT22;11742;53.532;-1.478;2024-01-25T08:13:25;9.30;99.90
23147;DHT22;11742;53.532;-1.478;2024-01-25T08:16:12;9.30;99.90
23147;DHT22;11742;53.532;-1.478;2024-01-25T08:18:57;9.30;99.90
23147;DHT22;11742;53.532;-1.478;2024-01-25T08:21:42;9.30;99.90
23147;DHT22;11742;53.532;-1.478;2024-01-25T08:24:26;9.30;99.90
23147;DHT22;11742;53.532;-1.478;2024-01-25T08:27:11;9.30;99.90
23147;DHT22;11742;53.532;-1.478;2024-01-25T08:29:55;9.30;99.90
23147;DHT22;11742;53.532;-1.478;2024-01-25T08:32:39;9.30;99.90
23147;DHT22;11742;53.532;-1.478;2024-01-25T08:35:23;9.30;99.90
23147;DHT22;11742;53.532;-1.478;2024-01-25T08:38:07;9.30;99.90
23147;DHT22;11742;53.532;-1.478;2024-01-25T08:40:52;9.30;99.90
23147;DHT22;11742;53.532;-1.478;2024-01-25T08:43:36;9.30;99.90
23147;DHT22;11742;53.532;-1.478;2024-01-25T08:46:20;9.30;99.90
23147;DHT22;11742;53.532;-1.478;2024-01-25T08:49:05;9.30;99.90
23147;DHT22;11742;53.532;-1.478;2024-01-25T08:51:52;9.30;99.90
23147;DHT22;11742;53.532;-1.478;2024-01-25T08:54:37;9.30;99.90
23147;DHT22;11742;53.532;-1.478;2024-01-25T08:57:22;9.30;99.90
23147;DHT22;11742;53.532;-1.478;2024-01-25T09:00:07;9.30;99.90
23147;DHT22;11742;53.532;-1.478;2024-01-25T09:02:54;9.30;99.90
23147;DHT22;11742;53.532;-1.478;2024-01-25T09:05:39;9.30;99.90
23147;DHT22;11742;53.532;-1.478;2024-01-25T09:08:29;9.30;99.90
23147;DHT22;11742;53.532;-1.478;2024-01-25T09:11:13;9.30;99.90
23147;DHT22;11742;53.532;-1.478;2024-01-25T09:13:57;9.30;99.90
23147;DHT22;11742;53.532;-1.478;2024-01-25T09:16:41;9.30;99.90
23147;DHT22;11742;53.532;-1.478;2024-01-25T09:19:27;9.30;99.90
23147;DHT22;11742;53.532;-1.478;2024-01-25T09:22:11;9.30;99.90
23147;DHT22;11742;53.532;-1.478;2024-01-25T09:24:55;9.30;99.90
23147;DHT22;11742;53.532;-1.478;2024-01-25T09:27:40;9.30;99.90
23147;DHT22;11742;53.532;-1.478;2024-01-25T09:30:24;9.40;99.90
23147;DHT22;11742;53.532;-1.478;2024-01-25T09:33:10;9.40;99.90
23147;DHT22;11742;53.532;-1.478;2024-01-25T09:35:54;9.30;99.90
23147;DHT22;11742;53.532;-1.478;2024-01-25T09:38:38;9.40;99.90
23147;DHT22;11742;53.532;-1.478;2024-01-25T09:41:22;9.40;99.90
23147;DHT22;11742;53.532;-1.478;2024-01-25T09:44:09;9.40;99.90
23147;DHT22;11742;53.532;-1.478;2024-01-25T09:46:55;9.40;99.90
23147;DHT22;11742;53.532;-1.478;2024-01-25T09:49:41;9.40;99.90
23147;DHT22;11742;53.532;-1.478;2024-01-25T09:52:26;9.40;99.90
23147;DHT22;11742;53.532;-1.478;2024-01-25T09:55:12;9.40;99.90
23147;DHT22;11742;53.532;-1.478;2024-01-25T09:57:59;9.40;99.90
23147;DHT22;11742;53.532;-1.478;2024-01-25T10:00:43;9.50;99.90
23147;DHT22;11742;53.532;-1.478;2024-01-25T10:03:28;9.50;99.90
23147;DHT22;11742;53.532;-1.478;2024-01-25T10:06:12;9.50;99.90
23147;DHT22;11742;53.532;-1.478;2024-01-25T10:08:56;9.60;99.90
23147;DHT22;11742;53.532;-1.478;2024-01-25T10:11:42;9.60;99.90
23147;DHT22;11742;53.532;-1.478;2024-01-25T10:14:27;9.60;99.90
23147;DHT22;11742;53.532;-1.478;2024-01-25T10:17:10;9.60;99.90
23147;DHT22;11742;53.532;-1.478;2024-01-25T10:19:55;9.60;99.90
23147;DHT22;11742;53.532;-1.478;2024-01-25T10:22:39;9.70;99.90
23147;DHT22;11742;53.532;-1.478;2024-01-25T10:25:24;9.70;99.90
23147;DHT22;11742;53.532;-1.478;2024-01-25T10:28:08;9.70;99.90
23147;DHT22;11742;53.532;-1.478;2024-01-25T10:30:55;9.80;99.90
23147;DHT22;11742;53.532;-1.478;2024-01-25T10:33:39;9.80;99.90
23147;DHT22;11742;53.532;-1.478;2024-01-25T10:36:24;9.80;99.90
23147;DHT22;11742;53.532;-1.478;2024-01-25T10:39:11;9.90;99.90
23147;DHT22;11742;53.532;-1.478;2024-01-25T10:41:58;9.90;99.90
23147;DHT22;11742;53.532;-1.478;2024-01-25T10:44:43;9.90;99.90
23147;DHT22;11742;53.532;-1.478;2024-01-25T10:47:29;10.00;99.90
23147;DHT22;11742;53.532;-1.478;2024-01-25T10:50:19;10.00;99.90
23147;DHT22;11742;53.532;-1.478;2024-01-25T10:53:04;10.00;99.90
23147;DHT22;11742;53.532;-1.478;2024-01-25T10:55:50;10.10;99.90
23147;DHT22;11742;53.532;-1.478;2024-01-25T10:58:35;10.10;99.90
23147;DHT22;11742;53.532;-1.478;2024-01-25T11:01:22;10.20;99.90
23147;DHT22;11742;53.532;-1.478;2024-01-25T11:04:17;10.20;99.90
23147;DHT22;11742;53.532;-1.478;2024-01-25T11:07:08;10.20;99.90
23147;DHT22;11742;53.532;-1.478;2024-01-25T11:09:53;10.30;99.90
23147;DHT22;11742;53.532;-1.478;2024-01-25T11:15:36;10.40;99.90
23147;DHT22;11742;53.532;-1.478;2024-01-25T11:18:20;10.40;99.90
23147;DHT22;11742;53.532;-1.478;2024-01-25T11:21:08;10.40;99.90
23147;DHT22;11742;53.532;-1.478;2024-01-25T11:24:02;10.50;99.90
23147;DHT22;11742;53.532;-1.478;2024-01-25T11:26:47;10.50;99.90
23147;DHT22;11742;53.532;-1.478;2024-01-25T11:29:33;10.50;99.90
23147;DHT22;11742;53.532;-1.478;2024-01-25T11:32:17;10.60;99.90
23147;DHT22;11742;53.532;-1.478;2024-01-25T11:35:02;10.60;99.90
23147;DHT22;11742;53.532;-1.478;2024-01-25T11:37:47;10.60;99.90
23147;DHT22;11742;53.532;-1.478;2024-01-25T11:40:32;10.70;99.90
23147;DHT22;11742;53.532;-1.478;2024-01-25T11:43:17;10.70;99.90
23147;DHT22;11742;53.532;-1.478;2024-01-25T11:46:02;10.70;99.90
23147;DHT22;11742;53.532;-1.478;2024-01-25T11:48:46;10.80;99.90
23147;DHT22;11742;53.532;-1.478;2024-01-25T11:51:30;10.80;99.90
23147;DHT22;11742;53.532;-1.478;2024-01-25T11:54:15;10.80;99.90
23147;DHT22;11742;53.532;-1.478;2024-01-25T11:56:59;10.90;99.90
23147;DHT22;11742;53.532;-1.478;2024-01-25T11:59:44;10.90;99.90
23147;DHT22;11742;53.532;-1.478;2024-01-25T12:02:30;10.90;99.90
23147;DHT22;11742;53.532;-1.478;2024-01-25T12:05:15;10.90;99.90
23147;DHT22;11742;53.532;-1.478;2024-01-25T12:08:00;11.00;99.90
23147;DHT22;11742;53.532;-1.478;2024-01-25T12:14:27;11.10;99.90
23147;DHT22;11742;53.532;-1.478;2024-01-25T12:17:11;11.10;99.90
23147;DHT22;11742;53.532;-1.478;2024-01-25T12:19:59;11.10;99.90
23147;DHT22;11742;53.532;-1.478;2024-01-25T12:22:48;11.10;99.90
23147;DHT22;11742;53.532;-1.478;2024-01-25T12:25:39;11.20;99.90
23147;DHT22;11742;53.532;-1.478;2024-01-25T12:28:26;11.20;99.90
23147;DHT22;11742;53.532;-1.478;2024-01-25T12:31:11;11.20;99.90
23147;DHT22;11742;53.532;-1.478;2024-01-25T12:33:55;11.30;99.90
23147;DHT22;11742;53.532;-1.478;2024-01-25T12:36:39;11.30;99.90
23147;DHT22;11742;53.532;-1.478;2024-01-25T12:39:23;11.30;99.90
23147;DHT22;11742;53.532;-1.478;2024-01-25T12:42:08;11.30;99.90
23147;DHT22;11742;53.532;-1.478;2024-01-25T12:44:53;11.40;99.90
23147;DHT22;11742;53.532;-1.478;2024-01-25T12:47:40;11.40;99.90
23147;DHT22;11742;53.532;-1.478;2024-01-25T12:50:24;11.50;99.90
23147;DHT22;11742;53.532;-1.478;2024-01-25T12:53:10;11.50;99.90
23147;DHT22;11742;53.532;-1.478;2024-01-25T12:55:55;11.50;99.90
23147;DHT22;11742;53.532;-1.478;2024-01-25T12:58:39;11.50;99.90
23147;DHT22;11742;53.532;-1.478;2024-01-25T13:01:23;11.60;99.90
23147;DHT22;11742;53.532;-1.478;2024-01-25T13:04:08;11.60;99.90
23147;DHT22;11742;53.532;-1.478;2024-01-25T13:06:53;11.60;99.90
23147;DHT22;11742;53.532;-1.478;2024-01-25T13:09:41;11.60;99.90
23147;DHT22;11742;53.532;-1.478;2024-01-25T13:12:25;11.60;99.90
23147;DHT22;11742;53.532;-1.478;2024-01-25T13:15:09;11.70;99.90
23147;DHT22;11742;53.532;-1.478;2024-01-25T13:17:54;11.70;99.90
23147;DHT22;11742;53.532;-1.478;2024-01-25T13:20:38;11.70;99.90
23147;DHT22;11742;53.532;-1.478;2024-01-25T13:23:22;11.80;99.90
23147;DHT22;11742;53.532;-1.478;2024-01-25T13:26:06;11.80;99.90
23147;DHT22;11742;53.532;-1.478;2024-01-25T13:28:50;11.80;99.90
23147;DHT22;11742;53.532;-1.478;2024-01-25T13:31:34;11.80;99.90
23147;DHT22;11742;53.532;-1.478;2024-01-25T13:34:19;11.90;99.90
23147;DHT22;11742;53.532;-1.478;2024-01-25T13:37:03;11.90;99.90
23147;DHT22;11742;53.532;-1.478;2024-01-25T13:39:47;11.90;99.90
23147;DHT22;11742;53.532;-1.478;2024-01-25T13:42:32;11.90;99.90
23147;DHT22;11742;53.532;-1.478;2024-01-25T13:45:16;12.00;99.90
23147;DHT22;11742;53.532;-1.478;2024-01-25T13:48:00;12.00;99.90
23147;DHT22;11742;53.532;-1.478;2024-01-25T13:50:44;12.00;99.90
23147;DHT22;11742;53.532;-1.478;2024-01-25T13:53:29;12.00;99.90
23147;DHT22;11742;53.532;-1.478;2024-01-25T13:56:13;12.00;99.90
23147;DHT22;11742;53.532;-1.478;2024-01-25T13:58:57;12.10;99.90
23147;DHT22;11742;53.532;-1.478;2024-01-25T14:01:41;12.10;99.90
23147;DHT22;11742;53.532;-1.478;2024-01-25T14:04:25;12.10;99.90
23147;DHT22;11742;53.532;-1.478;2024-01-25T14:07:10;12.10;99.90
23147;DHT22;11742;53.532;-1.478;2024-01-25T14:09:54;12.20;99.90
23147;DHT22;11742;53.532;-1.478;2024-01-25T14:12:39;12.20;99.90
23147;DHT22;11742;53.532;-1.478;2024-01-25T14:15:23;12.20;99.90
23147;DHT22;11742;53.532;-1.478;2024-01-25T14:18:08;12.20;99.90
23147;DHT22;11742;53.532;-1.478;2024-01-25T14:20:52;12.20;99.90
23147;DHT22;11742;53.532;-1.478;2024-01-25T14:23:37;12.30;99.90
23147;DHT22;11742;53.532;-1.478;2024-01-25T14:26:21;12.30;99.90
23147;DHT22;11742;53.532;-1.478;2024-01-25T14:29:05;12.30;99.90
23147;DHT22;11742;53.532;-1.478;2024-01-25T14:31:49;12.30;99.90
23147;DHT22;11742;53.532;-1.478;2024-01-25T14:34:33;12.30;99.90
23147;DHT22;11742;53.532;-1.478;2024-01-25T14:37:17;12.40;99.90
23147;DHT22;11742;53.532;-1.478;2024-01-25T14:40:02;12.40;99.90
23147;DHT22;11742;53.532;-1.478;2024-01-25T14:42:46;12.40;99.90
23147;DHT22;11742;53.532;-1.478;2024-01-25T14:45:30;12.40;99.90
23147;DHT22;11742;53.532;-1.478;2024-01-25T14:48:15;12.50;99.90
23147;DHT22;11742;53.532;-1.478;2024-01-25T14:50:59;12.50;99.90
23147;DHT22;11742;53.532;-1.478;2024-01-25T14:53:43;12.50;99.90
23147;DHT22;11742;53.532;-1.478;2024-01-25T14:56:27;12.50;99.90
23147;DHT22;11742;53.532;-1.478;2024-01-25T14:59:11;12.50;99.90
23147;DHT22;11742;53.532;-1.478;2024-01-25T15:01:56;12.60;99.90
23147;DHT22;11742;53.532;-1.478;2024-01-25T15:04:40;12.60;99.90
23147;DHT22;11742;53.532;-1.478;2024-01-25T15:07:24;12.60;99.90
23147;DHT22;11742;53.532;-1.478;2024-01-25T15:10:09;12.60;99.90
23147;DHT22;11742;53.532;-1.478;2024-01-25T15:12:53;12.70;99.90
23147;DHT22;11742;53.532;-1.478;2024-01-25T15:15:39;12.70;99.90
23147;DHT22;11742;53.532;-1.478;2024-01-25T15:18:24;12.70;99.90
23147;DHT22;11742;53.532;-1.478;2024-01-25T15:21:09;12.70;99.90
23147;DHT22;11742;53.532;-1.478;2024-01-25T15:23:53;12.70;99.90
23147;DHT22;11742;53.532;-1.478;2024-01-25T15:26:40;12.70;99.90
23147;DHT22;11742;53.532;-1.478;2024-01-25T15:29:26;12.80;99.90
23147;DHT22;11742;53.532;-1.478;2024-01-25T15:32:10;12.80;99.90
23147;DHT22;11742;53.532;-1.478;2024-01-25T15:34:54;12.80;99.90
23147;DHT22;11742;53.532;-1.478;2024-01-25T15:37:38;12.80;99.90
23147;DHT22;11742;53.532;-1.478;2024-01-25T15:40:25;12.80;99.90
23147;DHT22;11742;53.532;-1.478;2024-01-25T15:43:09;12.90;99.90
23147;DHT22;11742;53.532;-1.478;2024-01-25T15:45:54;12.90;99.90
23147;DHT22;11742;53.532;-1.478;2024-01-25T15:48:38;12.90;99.90
23147;DHT22;11742;53.532;-1.478;2024-01-25T15:51:22;12.90;99.90
23147;DHT22;11742;53.532;-1.478;2024-01-25T15:54:10;13.00;99.90
23147;DHT22;11742;53.532;-1.478;2024-01-25T15:56:54;13.00;99.90
23147;DHT22;11742;53.532;-1.478;2024-01-25T15:59:38;13.00;99.90
23147;DHT22;11742;53.532;-1.478;2024-01-25T16:02:22;13.00;99.90
23147;DHT22;11742;53.532;-1.478;2024-01-25T16:05:07;13.00;99.90
23147;DHT22;11742;53.532;-1.478;2024-01-25T16:07:51;13.00;99.90
23147;DHT22;11742;53.532;-1.478;2024-01-25T16:10:35;13.10;99.90
23147;DHT22;11742;53.532;-1.478;2024-01-25T16:13:20;13.10;99.90
23147;DHT22;11742;53.532;-1.478;2024-01-25T16:16:05;13.10;99.90
23147;DHT22;11742;53.532;-1.478;2024-01-25T16:18:50;13.10;99.90
23147;DHT22;11742;53.532;-1.478;2024-01-25T16:21:34;13.10;99.90
23147;DHT22;11742;53.532;-1.478;2024-01-25T16:24:18;13.10;99.90
23147;DHT22;11742;53.532;-1.478;2024-01-25T16:27:03;13.10;99.90
23147;DHT22;11742;53.532;-1.478;2024-01-25T16:29:48;13.10;99.90
23147;DHT22;11742;53.532;-1.478;2024-01-25T16:32:32;13.20;99.90
23147;DHT22;11742;53.532;-1.478;2024-01-25T16:35:16;13.20;99.90
23147;DHT22;11742;53.532;-1.478;2024-01-25T16:38:00;13.20;99.90
23147;DHT22;11742;53.532;-1.478;2024-01-25T16:40:44;13.20;99.90
23147;DHT22;11742;53.532;-1.478;2024-01-25T16:43:28;13.20;99.90
23147;DHT22;11742;53.532;-1.478;2024-01-25T16:46:12;13.20;99.90
23147;DHT22;11742;53.532;-1.478;2024-01-25T16:48:57;13.30;99.90
23147;DHT22;11742;53.532;-1.478;2024-01-25T16:51:41;13.30;99.90
23147;DHT22;11742;53.532;-1.478;2024-01-25T16:54:25;13.30;99.90
23147;DHT22;11742;53.532;-1.478;2024-01-25T16:57:10;13.30;99.90
23147;DHT22;11742;53.532;-1.478;2024-01-25T16:59:54;13.30;99.90
23147;DHT22;11742;53.532;-1.478;2024-01-25T17:02:38;13.30;99.90
23147;DHT22;11742;53.532;-1.478;2024-01-25T17:05:22;13.30;99.90
23147;DHT22;11742;53.532;-1.478;2024-01-25T17:08:06;13.30;99.90
23147;DHT22;11742;53.532;-1.478;2024-01-25T17:10:51;13.30;99.90
23147;DHT22;11742;53.532;-1.478;2024-01-25T17:13:35;13.40;99.90
23147;DHT22;11742;53.532;-1.478;2024-01-25T17:16:19;13.40;99.90
23147;DHT22;11742;53.532;-1.478;2024-01-25T17:19:04;13.40;99.90
23147;DHT22;11742;53.532;-1.478;2024-01-25T17:21:48;13.40;99.90